sensor_id;sensor_type;location;lat;lon;timestamp;temperature;humidity
37356;DHT22;48747;50.250;18.848;2023-05-02T00:01:28;11.90;78.80
37356;DHT22;48747;50.250;18.848;2023-05-02T00:03:33;11.90;79.20
37356;DHT22;48747;50.250;18.848;2023-05-02T00:05:36;11.90;80.10
37356;DHT22;48747;50.250;18.848;2023-05-02T00:07:39;11.80;79.80
37356;DHT22;48747;50.250;18.848;2023-05-02T00:09:42;11.90;80.30
37356;DHT22;48747;50.250;18.848;2023-05-02T00:11:46;11.80;80.50
37356;DHT22;48747;50.250;18.848;2023-05-02T00:13:49;11.70;81.00
37356;DHT22;48747;50.250;18.848;2023-05-02T00:15:52;11.70;82.00
37356;DHT22;48747;50.250;18.848;2023-05-02T00:17:55;11.70;83.30
37356;DHT22;48747;50.250;18.848;2023-05-02T00:20:00;11.60;82.90
37356;DHT22;48747;50.250;18.848;2023-05-02T00:22:10;11.60;83.40
37356;DHT22;48747;50.250;18.848;2023-05-02T00:24:11;11.60;83.70
37356;DHT22;48747;50.250;18.848;2023-05-02T00:26:14;11.60;84.70
37356;DHT22;48747;50.250;18.848;2023-05-02T00:28:17;11.60;84.80
37356;DHT22;48747;50.250;18.848;2023-05-02T00:30:20;11.60;85.60
37356;DHT22;48747;50.250;18.848;2023-05-02T00:32:25;11.50;85.90
37356;DHT22;48747;50.250;18.848;2023-05-02T00:34:29;11.50;86.40
37356;DHT22;48747;50.250;18.848;2023-05-02T00:36:32;11.60;87.00
37356;DHT22;48747;50.250;18.848;2023-05-02T00:38:35;11.50;87.90
37356;DHT22;48747;50.250;18.848;2023-05-02T00:40:46;11.60;87.60
37356;DHT22;48747;50.250;18.848;2023-05-02T00:42:50;11.60;88.60
37356;DHT22;48747;50.250;18.848;2023-05-02T00:44:53;11.60;88.30
37356;DHT22;48747;50.250;18.848;2023-05-02T00:46:56;11.60;87.90
37356;DHT22;48747;50.250;18.848;2023-05-02T00:49:00;11.70;88.10
37356;DHT22;48747;50.250;18.848;2023-05-02T00:51:06;11.70;88.10
37356;DHT22;48747;50.250;18.848;2023-05-02T00:53:11;11.60;88.40
37356;DHT22;48747;50.250;18.848;2023-05-02T00:55:14;11.50;89.80
37356;DHT22;48747;50.250;18.848;2023-05-02T00:57:17;11.50;89.50
37356;DHT22;48747;50.250;18.848;2023-05-02T00:59:20;11.50;90.20
37356;DHT22;48747;50.250;18.848;2023-05-02T01:01:32;11.50;90.20
37356;DHT22;48747;50.250;18.848;2023-05-02T01:03:54;11.50;90.20
37356;DHT22;48747;50.250;18.848;2023-05-02T01:05:53;11.60;90.80
37356;DHT22;48747;50.250;18.848;2023-05-02T01:10:17;11.50;91.20
37356;DHT22;48747;50.250;18.848;2023-05-02T01:13:02;11.40;90.80
37356;DHT22;48747;50.250;18.848;2023-05-02T01:14:24;11.40;91.40
37356;DHT22;48747;50.250;18.848;2023-05-02T01:16:30;11.30;91.40
37356;DHT22;48747;50.250;18.848;2023-05-02T01:18:36;11.30;91.80
37356;DHT22;48747;50.250;18.848;2023-05-02T01:20:42;11.20;92.10
37356;DHT22;48747;50.250;18.848;2023-05-02T01:22:47;11.30;92.90
37356;DHT22;48747;50.250;18.848;2023-05-02T01:27:41;11.40;92.40
37356;DHT22;48747;50.250;18.848;2023-05-02T01:29:34;11.30;92.40
37356;DHT22;48747;50.250;18.848;2023-05-02T01:31:41;11.30;92.90
37356;DHT22;48747;50.250;18.848;2023-05-02T01:33:45;11.40;93.20
37356;DHT22;48747;50.250;18.848;2023-05-02T01:35:51;11.40;93.00
37356;DHT22;48747;50.250;18.848;2023-05-02T01:37:55;11.40;92.90
37356;DHT22;48747;50.250;18.848;2023-05-02T01:40:00;11.40;93.10
37356;DHT22;48747;50.250;18.848;2023-05-02T01:42:04;11.30;93.20
37356;DHT22;48747;50.250;18.848;2023-05-02T01:44:08;11.30;93.80
37356;DHT22;48747;50.250;18.848;2023-05-02T01:46:13;11.30;94.10
37356;DHT22;48747;50.250;18.848;2023-05-02T01:48:17;11.20;94.10
37356;DHT22;48747;50.250;18.848;2023-05-02T01:50:23;11.20;94.50
37356;DHT22;48747;50.250;18.848;2023-05-02T01:52:28;11.30;94.60
37356;DHT22;48747;50.250;18.848;2023-05-02T01:54:33;11.40;94.10
37356;DHT22;48747;50.250;18.848;2023-05-02T01:56:38;11.40;94.30
37356;DHT22;48747;50.250;18.848;2023-05-02T01:58:42;11.40;94.30
37356;DHT22;48747;50.250;18.848;2023-05-02T02:00:48;11.40;94.20
37356;DHT22;48747;50.250;18.848;2023-05-02T02:02:51;11.40;94.60
37356;DHT22;48747;50.250;18.848;2023-05-02T02:04:55;11.40;95.10
37356;DHT22;48747;50.250;18.848;2023-05-02T02:07:01;11.30;94.90
37356;DHT22;48747;50.250;18.848;2023-05-02T02:09:05;11.40;95.30
37356;DHT22;48747;50.250;18.848;2023-05-02T02:11:09;11.40;95.00
37356;DHT22;48747;50.250;18.848;2023-05-02T02:13:17;11.40;95.10
37356;DHT22;48747;50.250;18.848;2023-05-02T02:15:34;11.40;95.20
37356;DHT22;48747;50.250;18.848;2023-05-02T02:17:45;11.30;95.10
37356;DHT22;48747;50.250;18.848;2023-05-02T02:19:50;11.30;95.40
37356;DHT22;48747;50.250;18.848;2023-05-02T02:21:55;11.40;95.60
37356;DHT22;48747;50.250;18.848;2023-05-02T02:24:02;11.40;95.60
37356;DHT22;48747;50.250;18.848;2023-05-02T02:26:06;11.50;95.50
37356;DHT22;48747;50.250;18.848;2023-05-02T02:28:10;11.40;95.50
37356;DHT22;48747;50.250;18.848;2023-05-02T02:30:14;11.40;95.80
37356;DHT22;48747;50.250;18.848;2023-05-02T02:32:17;11.30;95.90
37356;DHT22;48747;50.250;18.848;2023-05-02T02:34:20;11.30;95.90
37356;DHT22;48747;50.250;18.848;2023-05-02T02:39:21;11.20;96.40
37356;DHT22;48747;50.250;18.848;2023-05-02T02:41:32;11.20;96.40
37356;DHT22;48747;50.250;18.848;2023-05-02T02:48:35;11.20;96.80
37356;DHT22;48747;50.250;18.848;2023-05-02T02:50:42;11.10;96.80
37356;DHT22;48747;50.250;18.848;2023-05-02T02:54:55;11.10;96.90
37356;DHT22;48747;50.250;18.848;2023-05-02T02:57:10;11.10;96.80
37356;DHT22;48747;50.250;18.848;2023-05-02T02:59:14;11.10;96.40
37356;DHT22;48747;50.250;18.848;2023-05-02T03:01:20;11.10;96.40
37356;DHT22;48747;50.250;18.848;2023-05-02T03:03:25;11.10;96.50
37356;DHT22;48747;50.250;18.848;2023-05-02T03:05:30;11.10;96.30
37356;DHT22;48747;50.250;18.848;2023-05-02T03:07:35;11.20;96.10
37356;DHT22;48747;50.250;18.848;2023-05-02T03:09:43;11.20;95.60
37356;DHT22;48747;50.250;18.848;2023-05-02T03:11:46;11.30;95.60
37356;DHT22;48747;50.250;18.848;2023-05-02T03:13:50;11.30;95.40
37356;DHT22;48747;50.250;18.848;2023-05-02T03:16:11;11.20;95.40
37356;DHT22;48747;50.250;18.848;2023-05-02T03:18:00;11.20;95.90
37356;DHT22;48747;50.250;18.848;2023-05-02T03:20:04;11.20;95.80
37356;DHT22;48747;50.250;18.848;2023-05-02T03:22:12;11.20;96.20
37356;DHT22;48747;50.250;18.848;2023-05-02T03:24:14;11.30;95.50
37356;DHT22;48747;50.250;18.848;2023-05-02T03:26:17;11.30;95.20
37356;DHT22;48747;50.250;18.848;2023-05-02T03:28:20;11.30;95.40
37356;DHT22;48747;50.250;18.848;2023-05-02T03:30:26;11.30;95.10
37356;DHT22;48747;50.250;18.848;2023-05-02T03:32:28;11.30;95.40
37356;DHT22;48747;50.250;18.848;2023-05-02T03:34:31;11.30;95.60
37356;DHT22;48747;50.250;18.848;2023-05-02T03:36:34;11.30;95.50
37356;DHT22;48747;50.250;18.848;2023-05-02T03:38:42;11.20;95.40
37356;DHT22;48747;50.250;18.848;2023-05-02T03:40:43;11.20;95.50
37356;DHT22;48747;50.250;18.848;2023-05-02T03:42:46;11.30;95.60
37356;DHT22;48747;50.250;18.848;2023-05-02T03:44:51;11.20;95.90
37356;DHT22;48747;50.250;18.848;2023-05-02T03:46:55;11.20;96.10
37356;DHT22;48747;50.250;18.848;2023-05-02T03:49:01;11.20;96.20
37356;DHT22;48747;50.250;18.848;2023-05-02T03:51:04;11.20;96.00
37356;DHT22;48747;50.250;18.848;2023-05-02T03:53:09;11.20;96.30
37356;DHT22;48747;50.250;18.848;2023-05-02T03:55:12;11.30;95.50
37356;DHT22;48747;50.250;18.848;2023-05-02T03:57:16;11.30;95.20
37356;DHT22;48747;50.250;18.848;2023-05-02T03:59:19;11.40;95.60
37356;DHT22;48747;50.250;18.848;2023-05-02T04:01:22;11.30;95.10
37356;DHT22;48747;50.250;18.848;2023-05-02T04:03:25;11.40;94.70
37356;DHT22;48747;50.250;18.848;2023-05-02T04:05:30;11.50;94.30
37356;DHT22;48747;50.250;18.848;2023-05-02T04:07:34;11.50;94.70
37356;DHT22;48747;50.250;18.848;2023-05-02T04:09:37;11.60;94.20
37356;DHT22;48747;50.250;18.848;2023-05-02T04:11:40;11.50;94.20
37356;DHT22;48747;50.250;18.848;2023-05-02T04:13:45;11.60;94.20
37356;DHT22;48747;50.250;18.848;2023-05-02T04:15:48;11.60;93.50
37356;DHT22;48747;50.250;18.848;2023-05-02T04:17:51;11.60;93.40
37356;DHT22;48747;50.250;18.848;2023-05-02T04:19:54;11.60;93.50
37356;DHT22;48747;50.250;18.848;2023-05-02T04:22:00;11.70;93.40
37356;DHT22;48747;50.250;18.848;2023-05-02T04:24:02;11.70;93.00
37356;DHT22;48747;50.250;18.848;2023-05-02T04:26:05;11.80;92.70
37356;DHT22;48747;50.250;18.848;2023-05-02T04:28:08;11.80;92.80
37356;DHT22;48747;50.250;18.848;2023-05-02T04:30:12;11.80;92.30
37356;DHT22;48747;50.250;18.848;2023-05-02T04:32:15;11.90;92.30
37356;DHT22;48747;50.250;18.848;2023-05-02T04:34:19;11.90;92.40
37356;DHT22;48747;50.250;18.848;2023-05-02T04:36:23;11.90;92.30
37356;DHT22;48747;50.250;18.848;2023-05-02T04:38:26;12.00;92.60
37356;DHT22;48747;50.250;18.848;2023-05-02T04:40:29;12.00;91.70
37356;DHT22;48747;50.250;18.848;2023-05-02T04:42:33;12.10;91.70
37356;DHT22;48747;50.250;18.848;2023-05-02T04:44:36;12.20;92.20
37356;DHT22;48747;50.250;18.848;2023-05-02T04:46:39;12.20;92.00
37356;DHT22;48747;50.250;18.848;2023-05-02T04:48:47;12.30;91.50
37356;DHT22;48747;50.250;18.848;2023-05-02T04:50:46;12.30;91.10
37356;DHT22;48747;50.250;18.848;2023-05-02T04:52:50;12.40;91.10
37356;DHT22;48747;50.250;18.848;2023-05-02T04:54:53;12.50;90.60
37356;DHT22;48747;50.250;18.848;2023-05-02T04:56:58;12.60;89.80
37356;DHT22;48747;50.250;18.848;2023-05-02T04:59:03;12.70;88.90
37356;DHT22;48747;50.250;18.848;2023-05-02T05:01:06;12.70;89.90
37356;DHT22;48747;50.250;18.848;2023-05-02T05:03:09;12.80;88.80
37356;DHT22;48747;50.250;18.848;2023-05-02T05:05:12;12.80;88.50
37356;DHT22;48747;50.250;18.848;2023-05-02T05:07:18;13.00;87.30
37356;DHT22;48747;50.250;18.848;2023-05-02T05:09:20;13.00;87.00
37356;DHT22;48747;50.250;18.848;2023-05-02T05:11:24;13.10;86.30
37356;DHT22;48747;50.250;18.848;2023-05-02T05:13:29;13.20;86.40
37356;DHT22;48747;50.250;18.848;2023-05-02T05:15:33;13.30;86.20
37356;DHT22;48747;50.250;18.848;2023-05-02T05:17:36;13.50;85.30
37356;DHT22;48747;50.250;18.848;2023-05-02T05:19:41;13.60;84.80
37356;DHT22;48747;50.250;18.848;2023-05-02T05:21:45;13.80;84.00
37356;DHT22;48747;50.250;18.848;2023-05-02T05:23:48;13.90;83.10
37356;DHT22;48747;50.250;18.848;2023-05-02T05:25:51;14.00;82.00
37356;DHT22;48747;50.250;18.848;2023-05-02T05:27:59;14.10;82.00
37356;DHT22;48747;50.250;18.848;2023-05-02T05:30:03;14.20;81.60
37356;DHT22;48747;50.250;18.848;2023-05-02T05:32:06;14.30;80.40
37356;DHT22;48747;50.250;18.848;2023-05-02T05:34:12;14.40;80.30
37356;DHT22;48747;50.250;18.848;2023-05-02T05:36:15;14.50;80.50
37356;DHT22;48747;50.250;18.848;2023-05-02T05:38:20;14.60;80.80
37356;DHT22;48747;50.250;18.848;2023-05-02T05:40:23;14.70;80.20
37356;DHT22;48747;50.250;18.848;2023-05-02T05:42:26;14.80;79.90
37356;DHT22;48747;50.250;18.848;2023-05-02T05:44:31;14.90;78.50
37356;DHT22;48747;50.250;18.848;2023-05-02T05:46:35;15.00;78.40
37356;DHT22;48747;50.250;18.848;2023-05-02T05:48:41;15.20;76.10
37356;DHT22;48747;50.250;18.848;2023-05-02T05:50:46;15.40;76.30
37356;DHT22;48747;50.250;18.848;2023-05-02T05:52:52;15.50;74.80
37356;DHT22;48747;50.250;18.848;2023-05-02T05:54:57;15.60;73.60
37356;DHT22;48747;50.250;18.848;2023-05-02T05:57:00;15.70;73.80
37356;DHT22;48747;50.250;18.848;2023-05-02T05:59:04;15.80;73.40
37356;DHT22;48747;50.250;18.848;2023-05-02T06:01:07;15.90;72.80
37356;DHT22;48747;50.250;18.848;2023-05-02T06:03:11;16.00;72.30
37356;DHT22;48747;50.250;18.848;2023-05-02T06:05:20;16.10;72.50
37356;DHT22;48747;50.250;18.848;2023-05-02T06:07:22;16.20;72.80
37356;DHT22;48747;50.250;18.848;2023-05-02T06:09:25;16.30;72.40
37356;DHT22;48747;50.250;18.848;2023-05-02T06:11:28;16.30;71.50
37356;DHT22;48747;50.250;18.848;2023-05-02T06:13:31;16.40;71.60
37356;DHT22;48747;50.250;18.848;2023-05-02T06:15:35;16.50;71.90
37356;DHT22;48747;50.250;18.848;2023-05-02T06:17:41;16.60;72.20
37356;DHT22;48747;50.250;18.848;2023-05-02T06:19:46;16.70;71.60
37356;DHT22;48747;50.250;18.848;2023-05-02T06:21:51;16.80;70.80
37356;DHT22;48747;50.250;18.848;2023-05-02T06:23:56;16.90;71.30
37356;DHT22;48747;50.250;18.848;2023-05-02T06:26:00;17.00;71.80
37356;DHT22;48747;50.250;18.848;2023-05-02T06:28:03;16.90;70.50
37356;DHT22;48747;50.250;18.848;2023-05-02T06:30:08;16.90;71.40
37356;DHT22;48747;50.250;18.848;2023-05-02T06:32:12;17.00;71.90
37356;DHT22;48747;50.250;18.848;2023-05-02T06:34:15;17.10;71.80
37356;DHT22;48747;50.250;18.848;2023-05-02T06:36:21;17.10;71.10
37356;DHT22;48747;50.250;18.848;2023-05-02T06:38:24;17.20;71.90
37356;DHT22;48747;50.250;18.848;2023-05-02T06:40:29;17.20;71.30
37356;DHT22;48747;50.250;18.848;2023-05-02T06:42:37;17.20;71.00
37356;DHT22;48747;50.250;18.848;2023-05-02T06:44:40;17.30;71.00
37356;DHT22;48747;50.250;18.848;2023-05-02T06:46:43;17.40;71.50
37356;DHT22;48747;50.250;18.848;2023-05-02T06:48:46;17.40;70.70
37356;DHT22;48747;50.250;18.848;2023-05-02T06:50:50;17.50;71.00
37356;DHT22;48747;50.250;18.848;2023-05-02T06:52:55;17.50;70.10
37356;DHT22;48747;50.250;18.848;2023-05-02T06:55:03;17.60;70.80
37356;DHT22;48747;50.250;18.848;2023-05-02T06:57:03;17.80;71.30
37356;DHT22;48747;50.250;18.848;2023-05-02T06:59:07;17.90;70.10
37356;DHT22;48747;50.250;18.848;2023-05-02T07:01:12;18.00;69.10
37356;DHT22;48747;50.250;18.848;2023-05-02T07:03:20;18.20;68.90
37356;DHT22;48747;50.250;18.848;2023-05-02T07:05:28;18.30;68.30
37356;DHT22;48747;50.250;18.848;2023-05-02T07:07:32;18.40;67.60
37356;DHT22;48747;50.250;18.848;2023-05-02T07:09:39;18.40;66.30
37356;DHT22;48747;50.250;18.848;2023-05-02T07:11:42;18.40;66.20
37356;DHT22;48747;50.250;18.848;2023-05-02T07:14:16;18.50;66.50
37356;DHT22;48747;50.250;18.848;2023-05-02T07:16:14;18.60;67.00
37356;DHT22;48747;50.250;18.848;2023-05-02T07:18:20;18.70;65.80
37356;DHT22;48747;50.250;18.848;2023-05-02T07:20:24;18.70;64.70
37356;DHT22;48747;50.250;18.848;2023-05-02T07:22:32;18.70;65.20
37356;DHT22;48747;50.250;18.848;2023-05-02T07:24:45;18.80;64.70
37356;DHT22;48747;50.250;18.848;2023-05-02T07:26:44;18.80;64.40
37356;DHT22;48747;50.250;18.848;2023-05-02T07:28:47;18.80;63.60
37356;DHT22;48747;50.250;18.848;2023-05-02T07:30:59;18.80;64.00
37356;DHT22;48747;50.250;18.848;2023-05-02T07:33:02;18.70;62.60
37356;DHT22;48747;50.250;18.848;2023-05-02T07:35:05;18.70;62.50
37356;DHT22;48747;50.250;18.848;2023-05-02T07:37:10;18.60;61.80
37356;DHT22;48747;50.250;18.848;2023-05-02T07:39:13;18.60;63.10
37356;DHT22;48747;50.250;18.848;2023-05-02T07:41:16;18.60;63.00
37356;DHT22;48747;50.250;18.848;2023-05-02T07:43:19;18.70;63.70
37356;DHT22;48747;50.250;18.848;2023-05-02T07:45:22;18.80;64.00
37356;DHT22;48747;50.250;18.848;2023-05-02T07:47:27;18.80;63.90
37356;DHT22;48747;50.250;18.848;2023-05-02T07:49:30;18.70;62.70
37356;DHT22;48747;50.250;18.848;2023-05-02T07:51:33;18.80;63.50
37356;DHT22;48747;50.250;18.848;2023-05-02T07:53:36;18.90;63.10
37356;DHT22;48747;50.250;18.848;2023-05-02T07:55:39;19.10;64.80
37356;DHT22;48747;50.250;18.848;2023-05-02T07:57:42;19.30;63.20
37356;DHT22;48747;50.250;18.848;2023-05-02T07:59:45;19.50;63.40
37356;DHT22;48747;50.250;18.848;2023-05-02T08:01:49;19.60;61.90
37356;DHT22;48747;50.250;18.848;2023-05-02T08:03:52;19.60;61.80
37356;DHT22;48747;50.250;18.848;2023-05-02T08:05:55;19.60;61.40
37356;DHT22;48747;50.250;18.848;2023-05-02T08:07:58;19.60;61.30
37356;DHT22;48747;50.250;18.848;2023-05-02T08:10:03;19.50;61.70
37356;DHT22;48747;50.250;18.848;2023-05-02T08:12:06;19.40;62.30
37356;DHT22;48747;50.250;18.848;2023-05-02T08:14:09;19.40;62.50
37356;DHT22;48747;50.250;18.848;2023-05-02T08:16:14;19.40;62.60
37356;DHT22;48747;50.250;18.848;2023-05-02T08:18:17;19.50;63.30
37356;DHT22;48747;50.250;18.848;2023-05-02T08:20:21;19.50;63.20
37356;DHT22;48747;50.250;18.848;2023-05-02T08:22:24;19.60;61.80
37356;DHT22;48747;50.250;18.848;2023-05-02T08:24:27;19.50;62.70
37356;DHT22;48747;50.250;18.848;2023-05-02T08:26:32;19.60;62.60
37356;DHT22;48747;50.250;18.848;2023-05-02T08:28:35;19.60;62.00
37356;DHT22;48747;50.250;18.848;2023-05-02T08:30:38;19.70;62.20
37356;DHT22;48747;50.250;18.848;2023-05-02T08:32:41;19.70;63.20
37356;DHT22;48747;50.250;18.848;2023-05-02T08:34:47;19.80;63.40
37356;DHT22;48747;50.250;18.848;2023-05-02T08:36:50;20.00;62.50
37356;DHT22;48747;50.250;18.848;2023-05-02T08:38:53;20.10;62.20
37356;DHT22;48747;50.250;18.848;2023-05-02T08:40:56;20.10;62.10
37356;DHT22;48747;50.250;18.848;2023-05-02T08:43:00;20.10;62.60
37356;DHT22;48747;50.250;18.848;2023-05-02T08:45:03;20.30;63.20
37356;DHT22;48747;50.250;18.848;2023-05-02T08:47:09;20.30;62.20
37356;DHT22;48747;50.250;18.848;2023-05-02T08:49:14;20.20;62.90
37356;DHT22;48747;50.250;18.848;2023-05-02T08:51:24;20.10;62.30
37356;DHT22;48747;50.250;18.848;2023-05-02T08:53:24;20.10;63.80
37356;DHT22;48747;50.250;18.848;2023-05-02T08:55:28;20.10;62.90
37356;DHT22;48747;50.250;18.848;2023-05-02T08:57:31;20.20;64.50
37356;DHT22;48747;50.250;18.848;2023-05-02T08:59:34;20.20;63.60
37356;DHT22;48747;50.250;18.848;2023-05-02T09:01:39;20.30;63.90
37356;DHT22;48747;50.250;18.848;2023-05-02T09:03:44;20.30;63.60
37356;DHT22;48747;50.250;18.848;2023-05-02T09:05:52;20.30;64.00
37356;DHT22;48747;50.250;18.848;2023-05-02T09:07:57;20.40;64.30
37356;DHT22;48747;50.250;18.848;2023-05-02T09:10:03;20.30;63.30
37356;DHT22;48747;50.250;18.848;2023-05-02T09:12:06;20.30;63.70
37356;DHT22;48747;50.250;18.848;2023-05-02T09:14:16;20.50;64.00
37356;DHT22;48747;50.250;18.848;2023-05-02T09:16:24;20.60;64.10
37356;DHT22;48747;50.250;18.848;2023-05-02T09:18:30;20.80;64.00
37356;DHT22;48747;50.250;18.848;2023-05-02T09:20:38;20.80;63.90
37356;DHT22;48747;50.250;18.848;2023-05-02T09:22:47;20.80;64.10
37356;DHT22;48747;50.250;18.848;2023-05-02T09:24:54;20.80;63.10
37356;DHT22;48747;50.250;18.848;2023-05-02T09:27:04;20.90;64.00
37356;DHT22;48747;50.250;18.848;2023-05-02T09:29:07;20.90;64.70
37356;DHT22;48747;50.250;18.848;2023-05-02T09:31:16;20.80;63.60
37356;DHT22;48747;50.250;18.848;2023-05-02T09:33:26;20.80;63.60
37356;DHT22;48747;50.250;18.848;2023-05-02T09:35:29;20.70;64.40
37356;DHT22;48747;50.250;18.848;2023-05-02T09:37:35;20.70;64.40
37356;DHT22;48747;50.250;18.848;2023-05-02T09:39:38;20.80;64.80
37356;DHT22;48747;50.250;18.848;2023-05-02T09:41:42;20.80;64.20
37356;DHT22;48747;50.250;18.848;2023-05-02T09:43:54;20.90;65.80
37356;DHT22;48747;50.250;18.848;2023-05-02T09:46:05;20.80;65.30
37356;DHT22;48747;50.250;18.848;2023-05-02T09:48:05;20.70;66.20
37356;DHT22;48747;50.250;18.848;2023-05-02T09:50:08;20.60;65.80
37356;DHT22;48747;50.250;18.848;2023-05-02T09:52:13;20.60;66.30
37356;DHT22;48747;50.250;18.848;2023-05-02T09:54:34;20.40;66.90
37356;DHT22;48747;50.250;18.848;2023-05-02T09:56:55;20.30;66.90
37356;DHT22;48747;50.250;18.848;2023-05-02T09:59:15;20.10;67.40
37356;DHT22;48747;50.250;18.848;2023-05-02T10:01:18;20.20;67.40
37356;DHT22;48747;50.250;18.848;2023-05-02T10:03:24;20.20;68.40
37356;DHT22;48747;50.250;18.848;2023-05-02T10:05:36;20.20;68.10
37356;DHT22;48747;50.250;18.848;2023-05-02T10:07:40;20.10;67.00
37356;DHT22;48747;50.250;18.848;2023-05-02T10:09:44;20.10;68.40
37356;DHT22;48747;50.250;18.848;2023-05-02T10:11:50;20.00;68.00
37356;DHT22;48747;50.250;18.848;2023-05-02T10:13:54;19.80;68.50
37356;DHT22;48747;50.250;18.848;2023-05-02T10:15:59;19.80;68.90
37356;DHT22;48747;50.250;18.848;2023-05-02T10:18:07;19.80;69.50
37356;DHT22;48747;50.250;18.848;2023-05-02T10:20:10;19.90;69.30
37356;DHT22;48747;50.250;18.848;2023-05-02T10:22:18;19.90;67.70
37356;DHT22;48747;50.250;18.848;2023-05-02T10:24:22;20.00;68.40
37356;DHT22;48747;50.250;18.848;2023-05-02T10:26:26;20.00;68.20
37356;DHT22;48747;50.250;18.848;2023-05-02T10:28:30;20.00;69.20
37356;DHT22;48747;50.250;18.848;2023-05-02T10:30:34;19.90;69.00
37356;DHT22;48747;50.250;18.848;2023-05-02T10:32:38;19.80;69.50
37356;DHT22;48747;50.250;18.848;2023-05-02T10:34:41;19.80;69.60
37356;DHT22;48747;50.250;18.848;2023-05-02T10:36:45;19.80;69.50
37356;DHT22;48747;50.250;18.848;2023-05-02T10:38:49;19.80;68.90
37356;DHT22;48747;50.250;18.848;2023-05-02T10:40:56;19.90;69.10
37356;DHT22;48747;50.250;18.848;2023-05-02T10:42:59;19.90;69.90
37356;DHT22;48747;50.250;18.848;2023-05-02T10:45:03;19.90;68.70
37356;DHT22;48747;50.250;18.848;2023-05-02T10:47:22;19.80;69.10
37356;DHT22;48747;50.250;18.848;2023-05-02T10:49:25;19.70;68.70
37356;DHT22;48747;50.250;18.848;2023-05-02T10:51:31;19.70;70.10
37356;DHT22;48747;50.250;18.848;2023-05-02T10:53:35;19.70;69.90
37356;DHT22;48747;50.250;18.848;2023-05-02T10:55:40;19.70;70.60
37356;DHT22;48747;50.250;18.848;2023-05-02T11:00:23;19.80;70.20
37356;DHT22;48747;50.250;18.848;2023-05-02T11:05:00;19.80;70.10
37356;DHT22;48747;50.250;18.848;2023-05-02T11:11:41;20.00;70.10
37356;DHT22;48747;50.250;18.848;2023-05-02T11:13:48;20.00;69.40
37356;DHT22;48747;50.250;18.848;2023-05-02T11:15:53;19.80;70.20
37356;DHT22;48747;50.250;18.848;2023-05-02T11:18:10;19.70;70.80
37356;DHT22;48747;50.250;18.848;2023-05-02T11:20:18;19.50;71.80
37356;DHT22;48747;50.250;18.848;2023-05-02T11:24:39;19.20;72.60
37356;DHT22;48747;50.250;18.848;2023-05-02T11:26:43;19.30;73.40
37356;DHT22;48747;50.250;18.848;2023-05-02T11:28:46;19.30;72.90
37356;DHT22;48747;50.250;18.848;2023-05-02T11:30:50;19.40;73.10
37356;DHT22;48747;50.250;18.848;2023-05-02T11:35:00;19.70;72.80
37356;DHT22;48747;50.250;18.848;2023-05-02T11:37:13;19.70;72.20
37356;DHT22;48747;50.250;18.848;2023-05-02T11:39:19;19.80;72.20
37356;DHT22;48747;50.250;18.848;2023-05-02T11:41:37;19.80;71.90
37356;DHT22;48747;50.250;18.848;2023-05-02T11:43:40;19.80;72.70
37356;DHT22;48747;50.250;18.848;2023-05-02T11:45:44;19.80;71.90
37356;DHT22;48747;50.250;18.848;2023-05-02T11:47:49;19.70;71.30
37356;DHT22;48747;50.250;18.848;2023-05-02T11:49:56;19.60;72.40
37356;DHT22;48747;50.250;18.848;2023-05-02T11:52:01;19.60;72.60
37356;DHT22;48747;50.250;18.848;2023-05-02T11:54:04;19.60;72.60
37356;DHT22;48747;50.250;18.848;2023-05-02T11:56:09;19.60;71.80
37356;DHT22;48747;50.250;18.848;2023-05-02T11:58:13;19.60;72.60
37356;DHT22;48747;50.250;18.848;2023-05-02T12:00:18;19.70;72.10
37356;DHT22;48747;50.250;18.848;2023-05-02T12:02:35;19.70;72.10
37356;DHT22;48747;50.250;18.848;2023-05-02T12:04:43;19.80;71.70
37356;DHT22;48747;50.250;18.848;2023-05-02T12:06:57;19.70;71.60
37356;DHT22;48747;50.250;18.848;2023-05-02T12:09:07;19.80;72.00
37356;DHT22;48747;50.250;18.848;2023-05-02T12:11:14;19.80;71.70
37356;DHT22;48747;50.250;18.848;2023-05-02T12:13:19;19.80;71.60
37356;DHT22;48747;50.250;18.848;2023-05-02T12:15:23;19.50;72.50
37356;DHT22;48747;50.250;18.848;2023-05-02T12:17:26;19.50;73.40
37356;DHT22;48747;50.250;18.848;2023-05-02T12:19:29;19.40;73.70
37356;DHT22;48747;50.250;18.848;2023-05-02T12:21:33;19.40;74.40
37356;DHT22;48747;50.250;18.848;2023-05-02T12:23:38;19.40;74.30
37356;DHT22;48747;50.250;18.848;2023-05-02T12:25:43;19.50;74.20
37356;DHT22;48747;50.250;18.848;2023-05-02T12:28:02;19.20;73.90
37356;DHT22;48747;50.250;18.848;2023-05-02T12:30:05;19.30;74.00
37356;DHT22;48747;50.250;18.848;2023-05-02T12:32:09;19.30;73.50
37356;DHT22;48747;50.250;18.848;2023-05-02T12:34:13;19.30;73.60
37356;DHT22;48747;50.250;18.848;2023-05-02T12:36:17;19.30;74.30
37356;DHT22;48747;50.250;18.848;2023-05-02T12:38:20;19.30;74.70
37356;DHT22;48747;50.250;18.848;2023-05-02T12:40:31;19.00;74.60
37356;DHT22;48747;50.250;18.848;2023-05-02T12:42:33;18.90;74.00
37356;DHT22;48747;50.250;18.848;2023-05-02T12:44:38;18.80;73.70
37356;DHT22;48747;50.250;18.848;2023-05-02T12:46:59;18.90;74.20
37356;DHT22;48747;50.250;18.848;2023-05-02T12:49:07;18.90;71.70
37356;DHT22;48747;50.250;18.848;2023-05-02T12:51:23;18.80;72.80
37356;DHT22;48747;50.250;18.848;2023-05-02T12:53:40;18.80;73.00
37356;DHT22;48747;50.250;18.848;2023-05-02T12:55:45;18.80;72.30
37356;DHT22;48747;50.250;18.848;2023-05-02T12:57:55;18.70;72.80
37356;DHT22;48747;50.250;18.848;2023-05-02T12:59:54;18.70;74.10
37356;DHT22;48747;50.250;18.848;2023-05-02T13:01:58;18.70;73.00
37356;DHT22;48747;50.250;18.848;2023-05-02T13:04:02;18.70;73.00
37356;DHT22;48747;50.250;18.848;2023-05-02T13:06:06;18.70;74.80
37356;DHT22;48747;50.250;18.848;2023-05-02T13:08:09;18.90;74.20
37356;DHT22;48747;50.250;18.848;2023-05-02T13:10:12;19.20;73.80
37356;DHT22;48747;50.250;18.848;2023-05-02T13:12:17;19.30;71.40
37356;DHT22;48747;50.250;18.848;2023-05-02T13:14:20;19.40;70.00
37356;DHT22;48747;50.250;18.848;2023-05-02T13:16:23;19.30;69.40
37356;DHT22;48747;50.250;18.848;2023-05-02T13:18:27;19.40;70.50
37356;DHT22;48747;50.250;18.848;2023-05-02T13:20:30;19.40;70.40
37356;DHT22;48747;50.250;18.848;2023-05-02T13:22:33;19.40;70.40
37356;DHT22;48747;50.250;18.848;2023-05-02T13:24:38;19.40;69.80
37356;DHT22;48747;50.250;18.848;2023-05-02T13:26:41;19.40;69.60